V F Pors Moguer — FHVT — position and weather

sailwx.info

Track history (hours):
 
Tides and Currents Weather Stations Pressure Air Temp Water Temp Dewpoint Dewpoint Depression Visibility Wind Speed Wind Dir Waves Ship Positions

V F Pors Moguer

Last reported at 2017-Sep-19 21:58 UTC. Time now 2017-Sep-23 16:41 UTC.
Position N 49°29' W 007°10'.

Length 24 m; draft 3.8 m.

Type: Fishing. MMSI: 228213000.

Date/timePositionNaut miles runAvg speedWind from/ knotsBaromVisibWave heightAir tempDewpointWater temp
2017-Sep-19 21:58N 49°29' W 007°10'109 4.1
2017-Sep-18 19:16N 48°19' W 005°04'2 8.4
2017-Sep-18 18:59N 48°18' W 005°01'4 8.7
2017-Sep-18 18:30N 48°16' W 004°56'5 9.2
2017-Sep-18 18:00N 48°13' W 004°50'5 9.2
2017-Sep-18 17:30N 48°12' W 004°43'4 9.0
2017-Sep-18 17:00N 48°10' W 004°37'5 9.4
2017-Sep-18 16:30N 48°08' W 004°30'5 9.3
2017-Sep-18 16:00N 48°07' W 004°24'3 6.2
2017-Sep-18 15:30N 48°06' W 004°19'0 0.0
2017-Sep-18 15:00N 48°06' W 004°19'0 0.0
2017-Sep-18 14:30N 48°06' W 004°19'0 0.0
2017-Sep-18 13:54N 48°06' W 004°19'0 0.0
2017-Sep-18 13:30N 48°06' W 004°19'0 0.0
2017-Sep-18 13:00N 48°06' W 004°19'0 0.0
2017-Sep-18 12:30N 48°06' W 004°19'0 0.1
2017-Sep-18 11:58N 48°06' W 004°20'0 0.0
2017-Sep-18 11:25N 48°06' W 004°20'0 0.0
2017-Sep-18 10:58N 48°06' W 004°20'0 0.0
2017-Sep-18 10:28N 48°06' W 004°20'0 0.0
2017-Sep-18 09:58N 48°06' W 004°20'0 0.0
2017-Sep-18 09:12N 48°06' W 004°20'0 0.0
2017-Sep-18 09:00N 48°06' W 004°20'0 0.0
2017-Sep-18 08:30N 48°06' W 004°20'0 0.0
2017-Sep-18 08:00N 48°06' W 004°20'0 0.0
2017-Sep-18 07:30N 48°06' W 004°20'0 0.0
2017-Sep-18 07:00N 48°06' W 004°20'2 3.1
2017-Sep-18 06:30N 48°07' W 004°21'4 8.6
2017-Sep-18 06:00N 48°08' W 004°27'4 8.8
2017-Sep-18 05:30N 48°09' W 004°34'4 8.9
2017-Sep-18 05:01N 48°11' W 004°39'5 9.6
2017-Sep-18 04:30N 48°15' W 004°44'510.0
2017-Sep-18 04:00N 48°19' W 004°48'611.2
2017-Sep-18 03:30N 48°24' W 004°50'5 9.8
2017-Sep-18 03:00N 48°29' W 004°51'4 8.3
2017-Sep-18 02:30N 48°33' W 004°50'4 7.5
2017-Sep-18 02:00N 48°37' W 004°49'4 7.6
2017-Sep-18 01:30N 48°41' W 004°48'4 8.0
2017-Sep-18 01:00N 48°45' W 004°46'5 8.5
2017-Sep-18 00:25N 48°50' W 004°46'  
2017-Sep-15 19:38N 49°46' W 003°48'1 3.1
2017-Sep-15 19:25N 49°46' W 003°47'2 3.5
2017-Sep-15 18:56N 49°47' W 003°44'8 1.9
2017-Sep-15 14:30N 49°51' W 003°32'1 2.8
2017-Sep-15 14:00N 49°51' W 003°35'2 3.2
2017-Sep-15 13:30N 49°50' W 003°37'2 3.3
2017-Sep-15 13:00N 49°49' W 003°39'2 3.3
2017-Sep-15 12:31N 49°48' W 003°41'2 3.3
2017-Sep-15 12:00N 49°47' W 003°43'2 3.4
2017-Sep-15 11:30N 49°46' W 003°45'1 2.9
2017-Sep-15 11:00N 49°45' W 003°47'2 3.1
2017-Sep-15 10:30N 49°45' W 003°49'1 2.9
2017-Sep-15 10:00N 49°44' W 003°51'1 2.6
2017-Sep-15 09:30N 49°43' W 003°53'2 0.5
2017-Sep-15 06:10N 49°44' W 003°51'6 2.9
2017-Sep-15 04:15N 49°47' W 003°43'0 1.7
2017-Sep-15 03:59N 49°47' W 003°44'1 2.7
2017-Sep-15 03:30N 49°46' W 003°46'1 2.9
2017-Sep-15 03:00N 49°46' W 003°47'1 2.9
2017-Sep-15 02:31N 49°45' W 003°49'1 3.0
2017-Sep-15 02:00N 49°44' W 003°51'2 3.0
2017-Sep-15 01:30N 49°43' W 003°53'2 1.0
2017-Sep-14 23:16N 49°44' W 003°50'1 1.5
2017-Sep-14 22:32N 49°45' W 003°49'0 3.0
2017-Sep-14 22:30N 49°45' W 003°49'7 1.0
2017-Sep-14 15:19N 49°49' W 003°40'1 2.2
2017-Sep-14 15:00N 49°48' W 003°41'1 3.0
2017-Sep-14 14:31N 49°47' W 003°43'1 3.0
2017-Sep-14 14:00N 49°47' W 003°45'1 3.0
2017-Sep-14 13:30N 49°46' W 003°47'2 3.1
2017-Sep-14 13:00N 49°45' W 003°49'2 3.1
2017-Sep-14 12:30N 49°44' W 003°51'2 3.2
2017-Sep-14 12:00N 49°43' W 003°53'1 1.2
2017-Sep-14 11:29N 49°43' W 003°52'1 0.1
2017-Sep-14 03:18N 49°43' W 003°53'1 1.9
2017-Sep-14 03:00N 49°43' W 003°54'8 0.3
2017-Sep-12 22:47N 49°48' W 004°03'1 3.6
2017-Sep-12 22:30N 49°49' W 004°03'2 3.2
2017-Sep-12 21:59N 49°49' W 004°05'2 3.6
2017-Sep-12 21:17N 49°49' W 004°09'1 3.6
2017-Sep-12 20:55N 49°49' W 004°11'13 1.3
2017-Sep-12 10:41N 49°46' W 003°52'0 2.4
2017-Sep-12 10:30N 49°46' W 003°52'4 3.6
2017-Sep-12 09:28N 49°45' W 003°58'6 1.0
2017-Sep-12 03:27N 49°47' W 003°49'2 3.5
2017-Sep-12 02:55N 49°48' W 003°47'2 3.6
2017-Sep-12 02:14N 49°49' W 003°43'0 1.6
2017-Sep-12 01:56N 49°49' W 003°44'1 2.2
2017-Sep-12 01:26N 49°49' W 003°45'1 2.4
2017-Sep-12 01:00N 49°49' W 003°47'1 2.6
2017-Sep-12 00:30N 49°49' W 003°49'1 2.8
2017-Sep-12 00:00N 49°49' W 003°51'2 3.0
2017-Sep-11 23:29N 49°48' W 003°54'1 3.0
2017-Sep-11 23:00N 49°49' W 003°56'3 2.2
2017-Sep-11 21:37N 49°51' W 003°58'0 2.7
2017-Sep-11 21:30N 49°51' W 003°59'2 3.8
2017-Sep-11 21:00N 49°51' W 004°02'8 1.1
2017-Sep-11 14:20N 49°49' W 003°50'7 2.9
2017-Sep-11 11:51N 49°50' W 003°39'1 2.4
2017-Sep-11 11:30N 49°50' W 003°40'2 3.2
2017-Sep-11 11:00N 49°50' W 003°43'2 3.4
2017-Sep-11 10:30N 49°49' W 003°45'2 3.7
2017-Sep-11 10:00N 49°49' W 003°48'2 3.8
2017-Sep-11 09:30N 49°49' W 003°51'2 3.8
2017-Sep-11 09:00N 49°49' W 003°54'2 3.8
2017-Sep-11 08:29N 49°49' W 003°57'2 3.9
2017-Sep-11 07:54N 49°49' W 004°01'2 4.0
2017-Sep-11 07:30N 49°49' W 004°03'8 1.9
2017-Sep-11 03:33N 49°50' W 003°51'1 3.2
2017-Sep-11 03:21N 49°50' W 003°50'1 3.2
2017-Sep-11 02:58N 49°51' W 003°49'3 6.2
2017-Sep-11 02:30N 49°52' W 003°45'4 8.3
2017-Sep-11 02:00N 49°53' W 003°39'2 3.3
2017-Sep-11 01:27N 49°54' W 003°36'1 2.3
2017-Sep-11 01:00N 49°53' W 003°37'1 2.5
2017-Sep-11 00:29N 49°53' W 003°39'1 2.7
2017-Sep-11 00:00N 49°52' W 003°41'1 3.0
2017-Sep-10 23:30N 49°51' W 003°42'2 3.2
2017-Sep-10 23:00N 49°50' W 003°44'2 3.4
2017-Sep-10 22:30N 49°49' W 003°47'2 3.6
2017-Sep-10 22:00N 49°48' W 003°49'2 3.7
2017-Sep-10 21:30N 49°48' W 003°52'2 4.1
2017-Sep-10 20:58N 49°48' W 003°55'2 3.7
2017-Sep-10 20:30N 49°48' W 003°58'3 3.9
2017-Sep-10 19:49N 49°48' W 004°02'2 3.9
2017-Sep-10 19:23N 49°48' W 004°05'9 2.6
2017-Sep-10 15:45N 49°56' W 004°12'6 2.8
2017-Sep-10 13:42N 49°59' W 004°04'1 3.2
2017-Sep-10 13:28N 49°60' W 004°03'2 3.1
2017-Sep-10 12:58N 50°00' W 004°01'1 3.0
2017-Sep-10 12:30N 50°01' W 003°59'1 2.9
2017-Sep-10 12:00N 50°01' W 003°57'1 2.4
2017-Sep-10 11:30N 50°01' W 003°55'1 2.5
2017-Sep-10 11:00N 50°01' W 003°57'2 3.1
2017-Sep-10 10:28N 50°01' W 003°59'2 3.3
2017-Sep-10 10:00N 50°00' W 004°01'2 3.5
2017-Sep-10 09:30N 49°60' W 004°04'2 3.7
2017-Sep-10 08:58N 49°59' W 004°07'2 4.2
2017-Sep-10 08:30N 49°59' W 004°10'4 4.1
2017-Sep-10 07:36N 49°58' W 004°16'0 3.8
2017-Sep-10 07:30N 49°58' W 004°16'5 3.7
2017-Sep-10 06:06N 49°58' W 004°24'0 3.6
2017-Sep-10 05:59N 49°58' W 004°25'2 3.5
2017-Sep-10 05:28N 49°57' W 004°28'8 1.5
2017-Sep-10 00:02N 49°58' W 004°15'0 8.5
2017-Sep-10 00:00N 49°58' W 004°15'6 8.6
2017-Sep-09 23:18N 49°57' W 004°25'1 2.0
2017-Sep-09 22:57N 49°57' W 004°26'1 2.6
2017-Sep-09 22:30N 49°57' W 004°28'  
Track history (hours):
 
Tides and Currents Weather Stations Pressure Air Temp Water Temp Dewpoint Dewpoint Depression Visibility Wind Speed Wind Dir Waves Ship Positions

V F Pors Moguer

Last reported at 2017-Sep-19 21:58 UTC. Time now 2017-Sep-23 16:41 UTC.
Position N 49°29' W 007°10'.

Length 24 m; draft 3.8 m.

Type: Fishing. MMSI: 228213000.

Date/timePositionNaut miles runAvg speedWind from/ knotsBaromVisibWave heightAir tempDewpointWater temp
2017-Sep-19 21:58N 49°29' W 007°10'109 4.1
2017-Sep-18 19:16N 48°19' W 005°04'2 8.4
2017-Sep-18 18:59N 48°18' W 005°01'4 8.7
2017-Sep-18 18:30N 48°16' W 004°56'5 9.2
2017-Sep-18 18:00N 48°13' W 004°50'5 9.2
2017-Sep-18 17:30N 48°12' W 004°43'4 9.0
2017-Sep-18 17:00N 48°10' W 004°37'5 9.4
2017-Sep-18 16:30N 48°08' W 004°30'5 9.3
2017-Sep-18 16:00N 48°07' W 004°24'3 6.2
2017-Sep-18 15:30N 48°06' W 004°19'0 0.0
2017-Sep-18 15:00N 48°06' W 004°19'0 0.0
2017-Sep-18 14:30N 48°06' W 004°19'0 0.0
2017-Sep-18 13:54N 48°06' W 004°19'0 0.0
2017-Sep-18 13:30N 48°06' W 004°19'0 0.0
2017-Sep-18 13:00N 48°06' W 004°19'0 0.0
2017-Sep-18 12:30N 48°06' W 004°19'0 0.1
2017-Sep-18 11:58N 48°06' W 004°20'0 0.0
2017-Sep-18 11:25N 48°06' W 004°20'0 0.0
2017-Sep-18 10:58N 48°06' W 004°20'0 0.0
2017-Sep-18 10:28N 48°06' W 004°20'0 0.0
2017-Sep-18 09:58N 48°06' W 004°20'0 0.0
2017-Sep-18 09:12N 48°06' W 004°20'0 0.0
2017-Sep-18 09:00N 48°06' W 004°20'0 0.0
2017-Sep-18 08:30N 48°06' W 004°20'0 0.0
2017-Sep-18 08:00N 48°06' W 004°20'0 0.0
2017-Sep-18 07:30N 48°06' W 004°20'0 0.0
2017-Sep-18 07:00N 48°06' W 004°20'2 3.1
2017-Sep-18 06:30N 48°07' W 004°21'4 8.6
2017-Sep-18 06:00N 48°08' W 004°27'4 8.8
2017-Sep-18 05:30N 48°09' W 004°34'4 8.9
2017-Sep-18 05:01N 48°11' W 004°39'5 9.6
2017-Sep-18 04:30N 48°15' W 004°44'510.0
2017-Sep-18 04:00N 48°19' W 004°48'611.2
2017-Sep-18 03:30N 48°24' W 004°50'5 9.8
2017-Sep-18 03:00N 48°29' W 004°51'4 8.3
2017-Sep-18 02:30N 48°33' W 004°50'4 7.5
2017-Sep-18 02:00N 48°37' W 004°49'4 7.6
2017-Sep-18 01:30N 48°41' W 004°48'4 8.0
2017-Sep-18 01:00N 48°45' W 004°46'5 8.5
2017-Sep-18 00:25N 48°50' W 004°46'  
2017-Sep-15 19:38N 49°46' W 003°48'1 3.1
2017-Sep-15 19:25N 49°46' W 003°47'2 3.5
2017-Sep-15 18:56N 49°47' W 003°44'8 1.9
2017-Sep-15 14:30N 49°51' W 003°32'1 2.8
2017-Sep-15 14:00N 49°51' W 003°35'2 3.2
2017-Sep-15 13:30N 49°50' W 003°37'2 3.3
2017-Sep-15 13:00N 49°49' W 003°39'2 3.3
2017-Sep-15 12:31N 49°48' W 003°41'2 3.3
2017-Sep-15 12:00N 49°47' W 003°43'2 3.4
2017-Sep-15 11:30N 49°46' W 003°45'1 2.9
2017-Sep-15 11:00N 49°45' W 003°47'2 3.1
2017-Sep-15 10:30N 49°45' W 003°49'1 2.9
2017-Sep-15 10:00N 49°44' W 003°51'1 2.6
2017-Sep-15 09:30N 49°43' W 003°53'2 0.5
2017-Sep-15 06:10N 49°44' W 003°51'6 2.9
2017-Sep-15 04:15N 49°47' W 003°43'0 1.7
2017-Sep-15 03:59N 49°47' W 003°44'1 2.7
2017-Sep-15 03:30N 49°46' W 003°46'1 2.9
2017-Sep-15 03:00N 49°46' W 003°47'1 2.9
2017-Sep-15 02:31N 49°45' W 003°49'1 3.0
2017-Sep-15 02:00N 49°44' W 003°51'2 3.0
2017-Sep-15 01:30N 49°43' W 003°53'2 1.0
2017-Sep-14 23:16N 49°44' W 003°50'1 1.5
2017-Sep-14 22:32N 49°45' W 003°49'0 3.0
2017-Sep-14 22:30N 49°45' W 003°49'7 1.0
2017-Sep-14 15:19N 49°49' W 003°40'1 2.2
2017-Sep-14 15:00N 49°48' W 003°41'1 3.0
2017-Sep-14 14:31N 49°47' W 003°43'1 3.0
2017-Sep-14 14:00N 49°47' W 003°45'1 3.0
2017-Sep-14 13:30N 49°46' W 003°47'2 3.1
2017-Sep-14 13:00N 49°45' W 003°49'2 3.1
2017-Sep-14 12:30N 49°44' W 003°51'2 3.2
2017-Sep-14 12:00N 49°43' W 003°53'1 1.2
2017-Sep-14 11:29N 49°43' W 003°52'1 0.1
2017-Sep-14 03:18N 49°43' W 003°53'1 1.9
2017-Sep-14 03:00N 49°43' W 003°54'8 0.3
2017-Sep-12 22:47N 49°48' W 004°03'1 3.6
2017-Sep-12 22:30N 49°49' W 004°03'2 3.2
2017-Sep-12 21:59N 49°49' W 004°05'2 3.6
2017-Sep-12 21:17N 49°49' W 004°09'1 3.6
2017-Sep-12 20:55N 49°49' W 004°11'13 1.3
2017-Sep-12 10:41N 49°46' W 003°52'0 2.4
2017-Sep-12 10:30N 49°46' W 003°52'4 3.6
2017-Sep-12 09:28N 49°45' W 003°58'6 1.0
2017-Sep-12 03:27N 49°47' W 003°49'2 3.5
2017-Sep-12 02:55N 49°48' W 003°47'2 3.6
2017-Sep-12 02:14N 49°49' W 003°43'0 1.6
2017-Sep-12 01:56N 49°49' W 003°44'1 2.2
2017-Sep-12 01:26N 49°49' W 003°45'1 2.4
2017-Sep-12 01:00N 49°49' W 003°47'1 2.6
2017-Sep-12 00:30N 49°49' W 003°49'1 2.8
2017-Sep-12 00:00N 49°49' W 003°51'2 3.0
2017-Sep-11 23:29N 49°48' W 003°54'1 3.0
2017-Sep-11 23:00N 49°49' W 003°56'3 2.2
2017-Sep-11 21:37N 49°51' W 003°58'0 2.7
2017-Sep-11 21:30N 49°51' W 003°59'2 3.8
2017-Sep-11 21:00N 49°51' W 004°02'8 1.1
2017-Sep-11 14:20N 49°49' W 003°50'7 2.9
2017-Sep-11 11:51N 49°50' W 003°39'1 2.4
2017-Sep-11 11:30N 49°50' W 003°40'2 3.2
2017-Sep-11 11:00N 49°50' W 003°43'2 3.4
2017-Sep-11 10:30N 49°49' W 003°45'2 3.7
2017-Sep-11 10:00N 49°49' W 003°48'2 3.8
2017-Sep-11 09:30N 49°49' W 003°51'2 3.8
2017-Sep-11 09:00N 49°49' W 003°54'2 3.8
2017-Sep-11 08:29N 49°49' W 003°57'2 3.9
2017-Sep-11 07:54N 49°49' W 004°01'2 4.0
2017-Sep-11 07:30N 49°49' W 004°03'8 1.9
2017-Sep-11 03:33N 49°50' W 003°51'1 3.2
2017-Sep-11 03:21N 49°50' W 003°50'1 3.2
2017-Sep-11 02:58N 49°51' W 003°49'3 6.2
2017-Sep-11 02:30N 49°52' W 003°45'4 8.3
2017-Sep-11 02:00N 49°53' W 003°39'2 3.3
2017-Sep-11 01:27N 49°54' W 003°36'1 2.3
2017-Sep-11 01:00N 49°53' W 003°37'1 2.5
2017-Sep-11 00:29N 49°53' W 003°39'1 2.7
2017-Sep-11 00:00N 49°52' W 003°41'1 3.0
2017-Sep-10 23:30N 49°51' W 003°42'2 3.2
2017-Sep-10 23:00N 49°50' W 003°44'2 3.4
2017-Sep-10 22:30N 49°49' W 003°47'2 3.6
2017-Sep-10 22:00N 49°48' W 003°49'2 3.7
2017-Sep-10 21:30N 49°48' W 003°52'2 4.1
2017-Sep-10 20:58N 49°48' W 003°55'2 3.7
2017-Sep-10 20:30N 49°48' W 003°58'3 3.9
2017-Sep-10 19:49N 49°48' W 004°02'2 3.9
2017-Sep-10 19:23N 49°48' W 004°05'9 2.6
2017-Sep-10 15:45N 49°56' W 004°12'6 2.8
2017-Sep-10 13:42N 49°59' W 004°04'1 3.2
2017-Sep-10 13:28N 49°60' W 004°03'2 3.1
2017-Sep-10 12:58N 50°00' W 004°01'1 3.0
2017-Sep-10 12:30N 50°01' W 003°59'1 2.9
2017-Sep-10 12:00N 50°01' W 003°57'1 2.4
2017-Sep-10 11:30N 50°01' W 003°55'1 2.5
2017-Sep-10 11:00N 50°01' W 003°57'2 3.1
2017-Sep-10 10:28N 50°01' W 003°59'2 3.3
2017-Sep-10 10:00N 50°00' W 004°01'2 3.5
2017-Sep-10 09:30N 49°60' W 004°04'2 3.7
2017-Sep-10 08:58N 49°59' W 004°07'2 4.2
2017-Sep-10 08:30N 49°59' W 004°10'4 4.1
2017-Sep-10 07:36N 49°58' W 004°16'0 3.8
2017-Sep-10 07:30N 49°58' W 004°16'5 3.7
2017-Sep-10 06:06N 49°58' W 004°24'0 3.6
2017-Sep-10 05:59N 49°58' W 004°25'2 3.5
2017-Sep-10 05:28N 49°57' W 004°28'8 1.5
2017-Sep-10 00:02N 49°58' W 004°15'0 8.5
2017-Sep-10 00:00N 49°58' W 004°15'6 8.6
2017-Sep-09 23:18N 49°57' W 004°25'1 2.0
2017-Sep-09 22:57N 49°57' W 004°26'1 2.6
2017-Sep-09 22:30N 49°57' W 004°28'  

Dump ship's entire track history